Terminal Aerodrome Forecast
Issued by NWS Memphis, TN

Home | Current Version | Previous Version | Text Only | Print | Product List | Glossary On
Versions: 1 2 3 4 5 6 7 8 9 10 11 12 13
000
FTUS44 KMEG 271700
TAFJBR
TAF
KJBR 271728Z 2718/2818 11005KT P6SM SCT050 SCT250
     FM280100 00000KT P6SM SKC
     FM281000 00000KT 5SM BR SKC
     FM281400 18005KT P6SM SCT050=

USA.gov is the U.S. government's official web portal to all federal, state and local government web resources and services.